createdAt,value
2018-07-20T00:01:29.695Z,52.83
2018-07-20T00:03:57.949Z,53.51
2018-07-20T00:06:26.168Z,53.88
2018-07-20T00:08:54.420Z,53.16
2018-07-20T00:11:22.646Z,53.76
2018-07-20T00:13:51.257Z,54.15
2018-07-20T00:16:19.954Z,53.26
2018-07-20T00:18:48.153Z,53.29
2018-07-20T00:21:16.364Z,54.16
2018-07-20T00:23:44.590Z,53.58
2018-07-20T00:26:12.824Z,54.61
2018-07-20T00:28:41.021Z,54.14
2018-07-20T00:31:09.225Z,53.70
2018-07-20T00:33:37.461Z,54.57
2018-07-20T00:36:05.701Z,54.55
2018-07-20T00:38:33.929Z,54.14
2018-07-20T00:41:02.141Z,54.97
2018-07-20T00:43:30.385Z,54.89
2018-07-20T00:45:58.588Z,53.93
2018-07-20T00:48:26.800Z,54.56
2018-07-20T00:50:55.021Z,54.96
2018-07-20T00:53:23.225Z,53.86
2018-07-20T00:55:51.448Z,55.35
2018-07-20T00:58:19.695Z,54.94
2018-07-20T01:00:47.941Z,54.95
2018-07-20T01:03:16.165Z,55.09
2018-07-20T01:05:44.369Z,55.46
2018-07-20T01:08:12.604Z,54.69
2018-07-20T01:10:40.828Z,55.48
2018-07-20T01:13:09.056Z,55.74
2018-07-20T01:15:37.300Z,55.59
2018-07-20T01:18:05.533Z,55.16
2018-07-20T01:20:33.749Z,55.29
2018-07-20T01:23:01.948Z,55.92
2018-07-20T01:25:30.172Z,56.03
2018-07-20T01:27:58.397Z,55.43
2018-07-20T01:30:26.674Z,56.03
2018-07-20T01:32:54.918Z,55.77
2018-07-20T01:35:23.133Z,56.51
2018-07-20T01:37:51.410Z,56.22
2018-07-20T01:40:19.675Z,56.22
2018-07-20T01:42:47.916Z,55.89
2018-07-20T01:45:16.137Z,56.32
2018-07-20T01:47:44.356Z,55.90
2018-07-20T01:50:12.597Z,56.00
2018-07-20T01:52:40.949Z,57.84
2018-07-20T01:55:09.172Z,57.52
2018-07-20T01:57:37.396Z,57.33
2018-07-20T02:00:05.681Z,56.74
2018-07-20T02:02:33.920Z,57.64
2018-07-20T02:05:02.152Z,57.79
2018-07-20T02:07:30.366Z,57.92
2018-07-20T02:09:58.568Z,57.46
2018-07-20T02:12:26.776Z,57.22
2018-07-20T02:14:55.065Z,57.38
2018-07-20T02:17:23.268Z,56.89
2018-07-20T02:19:51.516Z,56.46
2018-07-20T02:22:19.733Z,57.61
2018-07-20T02:24:47.936Z,56.66
2018-07-20T02:27:16.169Z,57.74
2018-07-20T02:29:44.422Z,57.16
2018-07-20T02:32:12.671Z,57.14
2018-07-20T02:34:40.885Z,56.76
2018-07-20T02:37:09.137Z,56.01
2018-07-20T02:39:37.353Z,56.22
2018-07-20T02:42:05.585Z,56.97
2018-07-20T02:44:33.810Z,56.57
2018-07-20T02:47:02.073Z,57.09
2018-07-20T02:49:30.305Z,56.44
2018-07-20T02:51:58.533Z,56.47
2018-07-20T02:54:26.753Z,56.35
2018-07-20T02:56:54.965Z,56.42
2018-07-20T02:59:23.194Z,56.11
2018-07-20T03:01:51.421Z,57.32
2018-07-20T03:04:19.618Z,56.77
2018-07-20T03:06:47.825Z,57.51
2018-07-20T03:09:16.046Z,57.29
2018-07-20T03:11:44.553Z,57.34
2018-07-20T03:14:12.777Z,57.77
2018-07-20T03:16:41.005Z,56.91
2018-07-20T03:19:09.516Z,56.90
2018-07-20T03:21:37.746Z,56.72
2018-07-20T03:24:06.041Z,56.72
2018-07-20T03:26:34.277Z,57.28
2018-07-20T03:29:02.555Z,57.42
2018-07-20T03:31:30.771Z,57.21
2018-07-20T03:33:58.997Z,57.46
2018-07-20T03:36:27.212Z,58.26
2018-07-20T03:38:55.442Z,57.68
2018-07-20T03:41:23.664Z,57.83
2018-07-20T03:43:51.897Z,57.52
2018-07-20T03:46:20.176Z,57.77
2018-07-20T03:48:48.408Z,57.84
2018-07-20T03:51:16.629Z,58.61
2018-07-20T03:53:44.857Z,57.64
2018-07-20T03:56:13.088Z,57.81
2018-07-20T03:58:41.320Z,58.27
2018-07-20T04:01:09.532Z,59.08
2018-07-20T04:03:37.732Z,59.19
2018-07-20T04:06:05.979Z,58.34
2018-07-20T04:08:34.201Z,58.45
2018-07-20T04:11:02.501Z,58.14
2018-07-20T04:13:30.748Z,58.50
2018-07-20T04:15:58.985Z,59.49
2018-07-20T04:18:27.228Z,58.97
2018-07-20T04:20:55.488Z,65.06
2018-07-20T04:23:23.712Z,70.13
2018-07-20T04:25:51.936Z,71.04
2018-07-20T04:28:20.169Z,73.41
2018-07-20T04:30:48.388Z,74.04
2018-07-20T04:33:16.604Z,74.42
2018-07-20T04:35:44.836Z,74.07
2018-07-20T04:38:13.052Z,74.44
2018-07-20T04:40:41.288Z,74.38
2018-07-20T04:43:09.568Z,73.67
2018-07-20T04:45:37.809Z,73.61
2018-07-20T04:48:06.200Z,73.52
2018-07-20T04:50:34.526Z,73.72
2018-07-20T04:53:02.741Z,73.65
2018-07-20T04:55:30.957Z,75.06
2018-07-20T04:57:59.200Z,75.16
2018-07-20T05:00:27.417Z,73.96
2018-07-20T05:02:55.625Z,74.04
2018-07-20T05:05:23.828Z,71.50
2018-07-20T05:07:52.053Z,72.54
2018-07-20T05:10:20.268Z,72.57
2018-07-20T05:12:48.469Z,72.71
2018-07-20T05:15:16.686Z,72.22
2018-07-20T05:17:44.909Z,72.97
2018-07-20T05:20:13.144Z,72.25
2018-07-20T05:22:41.348Z,72.10
2018-07-20T05:25:10.430Z,72.53
2018-07-20T05:27:38.634Z,73.01
2018-07-20T05:30:07.773Z,71.50
2018-07-20T05:32:35.984Z,72.39
2018-07-20T05:35:04.205Z,71.69
2018-07-20T05:37:32.443Z,71.83
2018-07-20T05:40:00.660Z,72.32
2018-07-20T05:42:28.896Z,72.80
2018-07-20T05:44:57.115Z,72.08
2018-07-20T05:47:25.382Z,72.57
2018-07-20T05:49:53.592Z,71.94
2018-07-20T05:52:21.836Z,70.85
2018-07-20T05:54:50.150Z,71.36
2018-07-20T05:57:18.381Z,72.01
2018-07-20T05:59:46.829Z,71.94
2018-07-20T06:02:15.345Z,72.13
2018-07-20T06:04:43.613Z,72.58
2018-07-20T06:07:11.965Z,71.98
2018-07-20T06:09:40.180Z,71.08
2018-07-20T06:12:08.577Z,72.01
2018-07-20T06:14:36.785Z,71.55
2018-07-20T06:17:05.034Z,71.98
2018-07-20T06:19:33.340Z,71.95
2018-07-20T06:22:01.569Z,70.31
2018-07-20T06:24:29.824Z,70.59
2018-07-20T06:26:58.077Z,70.69
2018-07-20T06:29:26.313Z,69.79
2018-07-20T06:31:54.531Z,70.12
2018-07-20T06:34:22.792Z,69.77
2018-07-20T06:36:51.005Z,70.99
2018-07-20T06:39:19.252Z,70.77
2018-07-20T06:41:47.469Z,71.75
2018-07-20T06:44:15.756Z,69.91
2018-07-20T06:46:43.985Z,69.78
2018-07-20T06:49:12.192Z,68.64
2018-07-20T06:51:40.450Z,69.68
2018-07-20T06:54:08.688Z,69.45
2018-07-20T06:56:36.945Z,68.71
2018-07-20T06:59:05.196Z,68.43
2018-07-20T07:01:33.666Z,67.80
2018-07-20T07:04:01.913Z,67.99
2018-07-20T07:06:30.144Z,68.31
2018-07-20T07:08:58.616Z,67.66
2018-07-20T07:11:26.852Z,66.36
2018-07-20T07:13:55.105Z,67.08
2018-07-20T07:16:23.346Z,67.39
2018-07-20T07:18:51.572Z,67.09
2018-07-20T07:21:19.818Z,65.15
2018-07-20T07:23:48.053Z,66.00
2018-07-20T07:26:16.261Z,66.02
2018-07-20T07:28:44.502Z,65.27
2018-07-20T07:31:12.706Z,64.50
2018-07-20T07:33:40.932Z,64.99
2018-07-20T07:36:09.172Z,64.87
2018-07-20T07:38:37.399Z,64.64
2018-07-20T07:41:05.620Z,64.67
2018-07-20T07:43:33.844Z,63.35
2018-07-20T07:46:02.118Z,63.76
2018-07-20T07:48:30.345Z,61.82
2018-07-20T07:50:58.669Z,63.36
2018-07-20T07:53:26.944Z,61.94
2018-07-20T07:55:55.176Z,62.45
2018-07-20T07:58:23.416Z,62.73
2018-07-20T08:00:51.624Z,62.84
2018-07-20T08:03:19.940Z,62.59
2018-07-20T08:05:48.153Z,61.74
2018-07-20T08:08:16.376Z,61.31
2018-07-20T08:10:44.637Z,60.52
2018-07-20T08:13:12.856Z,61.04
2018-07-20T08:15:41.120Z,60.51
2018-07-20T08:18:09.318Z,59.83
2018-07-20T08:20:37.536Z,60.92
2018-07-20T08:23:05.809Z,60.90
2018-07-20T08:25:34.069Z,59.27
2018-07-20T08:28:02.309Z,61.45
2018-07-20T08:30:30.725Z,59.96
2018-07-20T08:32:58.957Z,60.03
2018-07-20T08:35:27.244Z,59.18
2018-07-20T08:37:55.700Z,58.08
2018-07-20T08:40:23.929Z,59.00
2018-07-20T08:42:52.504Z,58.16
2018-07-20T08:45:20.760Z,58.92
2018-07-20T08:47:48.976Z,58.93
2018-07-20T08:50:17.227Z,58.54
2018-07-20T08:52:45.552Z,58.30
2018-07-20T08:55:13.864Z,57.75
2018-07-20T08:57:42.106Z,57.90
2018-07-20T09:00:10.330Z,57.47
2018-07-20T09:02:38.592Z,57.20
2018-07-20T09:05:06.828Z,57.47
2018-07-20T09:07:35.144Z,58.00
2018-07-20T09:10:03.398Z,57.51
2018-07-20T09:12:31.685Z,57.89
2018-07-20T09:15:00.018Z,57.36
2018-07-20T09:17:28.344Z,56.76
2018-07-20T09:19:56.565Z,55.84
2018-07-20T09:22:24.852Z,56.75
2018-07-20T09:24:53.081Z,56.47
2018-07-20T09:27:21.346Z,56.10
2018-07-20T09:29:49.569Z,56.30
2018-07-20T09:32:17.805Z,54.66
2018-07-20T09:34:46.029Z,55.61
2018-07-20T09:37:14.241Z,54.47
2018-07-20T09:39:42.478Z,54.08
2018-07-20T09:42:10.925Z,54.78
2018-07-20T09:44:39.220Z,53.94
2018-07-20T09:47:07.444Z,54.24
2018-07-20T09:49:35.813Z,53.67
2018-07-20T09:52:04.037Z,52.15
2018-07-20T09:54:32.273Z,52.80
2018-07-20T09:57:00.493Z,51.62
2018-07-20T09:59:28.744Z,51.77
2018-07-20T10:01:57.065Z,52.09
2018-07-20T10:04:25.292Z,51.50
2018-07-20T10:06:53.536Z,50.88
2018-07-20T10:09:21.788Z,50.98
2018-07-20T10:11:50.049Z,50.99
2018-07-20T10:14:18.266Z,50.49
2018-07-20T10:16:46.480Z,52.22
2018-07-20T10:19:14.783Z,50.15
2018-07-20T10:21:42.993Z,50.17
2018-07-20T10:24:11.252Z,50.24
2018-07-20T10:26:39.564Z,50.89
2018-07-20T10:29:07.805Z,50.30
2018-07-20T10:31:36.035Z,49.40
2018-07-20T10:34:04.253Z,49.50
2018-07-20T10:36:32.502Z,48.98
2018-07-20T10:39:00.741Z,48.04
2018-07-20T10:41:28.952Z,48.12
2018-07-20T10:43:57.185Z,48.81
2018-07-20T10:46:25.422Z,47.76
2018-07-20T10:48:53.657Z,47.78
2018-07-20T10:51:21.888Z,47.54
2018-07-20T10:53:50.105Z,47.09
2018-07-20T10:56:18.329Z,46.51
2018-07-20T10:58:46.541Z,45.71
2018-07-20T11:01:14.812Z,45.44
2018-07-20T11:03:43.012Z,45.29
2018-07-20T11:06:11.261Z,44.54
2018-07-20T11:08:39.469Z,43.57
2018-07-20T11:11:08.236Z,42.27
2018-07-20T11:13:36.570Z,42.05
2018-07-20T11:16:04.805Z,42.38
2018-07-20T11:18:33.033Z,41.44
2018-07-20T11:21:01.345Z,41.57
2018-07-20T11:23:29.556Z,42.31
2018-07-20T11:25:57.789Z,41.74
2018-07-20T11:28:26.001Z,40.72
2018-07-20T11:30:54.256Z,40.63
2018-07-20T11:33:22.568Z,40.16
2018-07-20T11:35:50.810Z,40.20
2018-07-20T11:38:19.020Z,40.06
2018-07-20T11:40:47.285Z,39.05
2018-07-20T11:43:15.518Z,38.74
2018-07-20T11:45:43.748Z,39.21
2018-07-20T11:48:11.957Z,38.91
2018-07-20T11:50:40.168Z,38.79
2018-07-20T11:53:08.404Z,38.17
2018-07-20T11:55:36.627Z,38.59
2018-07-20T11:58:04.880Z,39.25
2018-07-20T12:00:33.112Z,38.84
2018-07-20T12:03:01.354Z,38.38
2018-07-20T12:05:29.568Z,38.36
2018-07-20T12:07:57.800Z,37.96
2018-07-20T12:10:26.017Z,37.53
2018-07-20T12:12:54.244Z,37.79
2018-07-20T12:15:22.468Z,36.71
2018-07-20T12:17:50.700Z,37.09
2018-07-20T12:20:18.909Z,36.95
2018-07-20T12:22:47.170Z,38.32
2018-07-20T12:25:15.391Z,37.64
2018-07-20T12:27:43.764Z,37.77
2018-07-20T12:30:12.001Z,38.13
2018-07-20T12:32:40.203Z,37.81
2018-07-20T12:35:08.453Z,37.34
2018-07-20T12:37:36.664Z,37.31
2018-07-20T12:40:04.987Z,37.10
2018-07-20T12:42:33.304Z,35.77
2018-07-20T12:45:01.458Z,36.02
2018-07-20T12:47:29.685Z,35.22
2018-07-20T12:49:57.901Z,35.38
2018-07-20T12:52:26.121Z,35.35
2018-07-20T12:54:54.365Z,34.46
2018-07-20T12:57:22.597Z,34.60
2018-07-20T12:59:50.829Z,35.71
2018-07-20T13:02:19.077Z,35.22
2018-07-20T13:04:47.307Z,34.83
2018-07-20T13:07:15.551Z,34.26
2018-07-20T13:09:43.797Z,34.76
2018-07-20T13:12:12.030Z,34.86
2018-07-20T13:14:40.244Z,34.82
2018-07-20T13:17:08.494Z,34.73
2018-07-20T13:19:36.697Z,35.22
2018-07-20T13:22:04.933Z,33.49
2018-07-20T13:24:33.161Z,34.01
2018-07-20T13:27:01.641Z,34.22
2018-07-20T13:29:29.852Z,33.23
2018-07-20T13:31:58.081Z,33.29
2018-07-20T13:34:26.300Z,34.10
2018-07-20T13:36:54.537Z,34.38
2018-07-20T13:39:22.804Z,35.78
2018-07-20T13:41:51.057Z,34.53
2018-07-20T13:44:19.276Z,34.42
2018-07-20T13:46:47.521Z,33.89
2018-07-20T13:49:15.749Z,33.57
2018-07-20T13:51:43.972Z,33.56
2018-07-20T13:54:12.217Z,32.95
2018-07-20T13:56:40.436Z,32.72
2018-07-20T13:59:08.672Z,33.46
2018-07-20T14:01:36.908Z,33.80
2018-07-20T14:04:05.183Z,33.04
2018-07-20T14:06:33.388Z,32.87
2018-07-20T14:09:01.614Z,32.61
2018-07-20T14:11:29.850Z,32.86
2018-07-20T14:13:58.055Z,32.70
2018-07-20T14:16:26.286Z,31.89
2018-07-20T14:18:54.528Z,32.01
2018-07-20T14:21:22.738Z,31.63
2018-07-20T14:23:50.961Z,30.80
2018-07-20T14:26:19.227Z,32.02
2018-07-20T14:28:47.408Z,31.76
2018-07-20T14:31:15.636Z,32.65
2018-07-20T14:33:43.862Z,32.15
2018-07-20T14:36:12.124Z,32.40
2018-07-20T14:38:40.350Z,32.67
2018-07-20T14:41:08.577Z,32.19
2018-07-20T14:43:36.797Z,32.06
2018-07-20T14:46:05.149Z,32.90
2018-07-20T14:48:33.358Z,31.41
2018-07-20T14:51:01.579Z,32.87
2018-07-20T14:53:29.801Z,32.85
2018-07-20T14:55:58.046Z,32.70
2018-07-20T14:58:26.293Z,33.05
2018-07-20T15:00:54.532Z,32.58
2018-07-20T15:03:22.741Z,32.28
2018-07-20T15:05:50.944Z,31.84
2018-07-20T15:08:19.172Z,32.32
2018-07-20T15:10:47.384Z,32.24
2018-07-20T15:13:15.681Z,32.35
2018-07-20T15:15:43.900Z,32.16
2018-07-20T15:18:12.117Z,32.31
2018-07-20T15:20:40.346Z,31.28
2018-07-20T15:23:08.612Z,31.67
2018-07-20T15:25:37.052Z,31.84
2018-07-20T15:28:05.373Z,31.56
2018-07-20T15:30:33.632Z,31.30
2018-07-20T15:33:01.856Z,29.74
2018-07-20T15:35:30.068Z,30.78
2018-07-20T15:37:58.278Z,31.34
2018-07-20T15:40:26.537Z,32.26
2018-07-20T15:42:54.801Z,31.75
2018-07-20T15:45:23.049Z,31.80
2018-07-20T15:47:51.301Z,32.22
2018-07-20T15:50:19.516Z,31.50
2018-07-20T15:53:35.719Z,31.45
2018-07-20T15:55:16.003Z,31.25
2018-07-20T15:57:44.248Z,31.92
2018-07-20T16:00:12.501Z,32.40
2018-07-20T16:02:40.749Z,32.47
2018-07-20T16:05:08.985Z,33.15
2018-07-20T16:07:37.237Z,33.38
2018-07-20T16:10:05.496Z,33.60
2018-07-20T16:12:33.729Z,33.74
2018-07-20T16:15:01.967Z,34.20
2018-07-20T16:17:30.186Z,34.06
2018-07-20T16:19:58.425Z,34.01
2018-07-20T16:22:26.709Z,34.55
2018-07-20T16:24:54.940Z,34.48
2018-07-20T16:27:23.157Z,34.32
2018-07-20T16:29:51.380Z,34.75
2018-07-20T16:32:19.649Z,35.61
2018-07-20T16:34:47.893Z,35.75
2018-07-20T16:37:16.136Z,35.86
2018-07-20T16:39:44.348Z,35.18
2018-07-20T16:42:12.592Z,34.56
2018-07-20T16:44:40.832Z,32.88
2018-07-20T16:47:09.090Z,32.50
2018-07-20T16:49:37.315Z,32.05
2018-07-20T16:52:05.540Z,32.81
2018-07-20T16:54:33.753Z,32.46
2018-07-20T16:57:01.964Z,32.18
2018-07-20T16:59:30.200Z,32.20
2018-07-20T17:01:58.412Z,32.75
2018-07-20T17:04:26.649Z,33.43
2018-07-20T17:06:54.877Z,33.09
2018-07-20T17:09:23.100Z,33.59
2018-07-20T17:11:51.319Z,33.44
2018-07-20T17:14:19.545Z,33.30
2018-07-20T17:16:47.756Z,33.18
2018-07-20T17:19:15.995Z,33.35
2018-07-20T17:21:44.244Z,33.74
2018-07-20T17:24:12.477Z,33.49
2018-07-20T17:26:40.704Z,33.28
2018-07-20T17:29:08.941Z,33.22
2018-07-20T17:31:37.157Z,33.44
2018-07-20T17:34:05.429Z,33.71
2018-07-20T17:36:33.660Z,34.25
2018-07-20T17:39:02.050Z,34.42
2018-07-20T17:41:30.273Z,34.68
2018-07-20T17:43:58.469Z,35.24
2018-07-20T17:46:26.734Z,34.65
2018-07-20T17:48:54.946Z,34.21
2018-07-20T17:51:23.164Z,33.57
2018-07-20T17:53:51.408Z,33.86
2018-07-20T17:56:19.664Z,33.95
2018-07-20T17:58:47.845Z,33.48
2018-07-20T18:01:16.253Z,33.01
2018-07-20T18:03:44.518Z,31.23
2018-07-20T18:06:12.845Z,31.76
2018-07-20T18:08:41.048Z,32.88
2018-07-20T18:11:09.277Z,33.39
2018-07-20T18:13:37.509Z,33.25
2018-07-20T18:16:05.860Z,34.18
2018-07-20T18:18:34.070Z,33.90
2018-07-20T18:21:02.305Z,33.52
2018-07-20T18:23:30.549Z,33.45
2018-07-20T18:25:58.765Z,33.63
2018-07-20T18:28:26.970Z,33.97
2018-07-20T18:30:55.193Z,33.48
2018-07-20T18:33:23.420Z,34.11
2018-07-20T18:35:51.660Z,35.38
2018-07-20T18:38:19.884Z,36.54
2018-07-20T18:40:48.137Z,39.25
2018-07-20T18:43:16.389Z,39.46
2018-07-20T18:45:44.625Z,44.07
2018-07-20T18:48:12.827Z,46.08
2018-07-20T18:50:41.060Z,50.85
2018-07-20T18:53:09.263Z,53.32
2018-07-20T18:55:37.481Z,55.17
2018-07-20T18:58:05.726Z,56.60
2018-07-20T19:00:33.945Z,57.33
2018-07-20T19:03:02.169Z,59.08
2018-07-20T19:05:30.385Z,59.70
2018-07-20T19:07:58.622Z,58.97
2018-07-20T19:10:26.829Z,59.60
2018-07-20T19:12:55.041Z,59.24
2018-07-20T19:15:23.341Z,59.71
2018-07-20T19:17:51.604Z,61.21
2018-07-20T19:20:19.842Z,60.89
2018-07-20T19:22:48.073Z,60.50
2018-07-20T19:25:16.333Z,61.11
2018-07-20T19:27:44.637Z,61.18
2018-07-20T19:30:12.909Z,59.98
2018-07-20T19:32:41.171Z,60.25
2018-07-20T19:35:09.343Z,59.90
2018-07-20T19:37:37.565Z,58.87
2018-07-20T19:40:05.787Z,58.31
2018-07-20T19:42:34.018Z,58.60
2018-07-20T19:45:02.245Z,57.25
2018-07-20T19:47:30.546Z,56.74
2018-07-20T19:49:58.761Z,55.72
2018-07-20T19:52:27.002Z,53.99
2018-07-20T19:54:55.253Z,54.04
2018-07-20T19:57:23.488Z,52.26
2018-07-20T19:59:51.709Z,51.54
2018-07-20T20:02:19.921Z,50.37
2018-07-20T20:04:48.165Z,49.15
2018-07-20T20:07:16.377Z,49.35
2018-07-20T20:09:44.825Z,48.87
2018-07-20T20:12:13.525Z,48.85
2018-07-20T20:14:41.780Z,48.28
2018-07-20T20:17:10.016Z,48.53
2018-07-20T20:19:38.252Z,47.90
2018-07-20T20:22:06.773Z,48.02
2018-07-20T20:24:35.000Z,47.84
2018-07-20T20:27:03.320Z,48.08
2018-07-20T20:29:31.581Z,47.52
2018-07-20T20:31:59.810Z,47.16
2018-07-20T20:34:28.025Z,46.38
2018-07-20T20:36:56.254Z,47.05
2018-07-20T20:39:24.465Z,46.36
2018-07-20T20:41:52.670Z,47.11
2018-07-20T20:44:20.903Z,47.49
2018-07-20T20:46:49.166Z,47.81
2018-07-20T20:49:17.416Z,48.20
2018-07-20T20:51:45.697Z,48.80
2018-07-20T20:54:13.952Z,48.67
2018-07-20T20:56:42.164Z,48.42
2018-07-20T20:59:10.450Z,48.93
2018-07-20T21:01:38.652Z,48.81
2018-07-20T21:04:06.872Z,48.21
2018-07-20T21:06:35.104Z,46.80
2018-07-20T21:09:03.456Z,46.01
2018-07-20T21:11:31.677Z,45.67
2018-07-20T21:13:59.918Z,45.98
2018-07-20T21:16:28.132Z,44.86
2018-07-20T21:18:56.376Z,46.20
2018-07-20T21:21:24.685Z,45.72
2018-07-20T21:23:52.907Z,45.03
2018-07-20T21:26:21.117Z,45.08
2018-07-20T21:28:49.344Z,45.40
2018-07-20T21:31:17.589Z,45.60
2018-07-20T21:33:45.815Z,45.91
2018-07-20T21:36:14.049Z,44.53
2018-07-20T21:38:42.284Z,45.56
2018-07-20T21:41:10.532Z,45.37
2018-07-20T21:43:38.805Z,45.26
2018-07-20T21:46:07.138Z,46.17
2018-07-20T21:48:35.462Z,45.27
2018-07-20T21:51:03.628Z,46.03
2018-07-20T21:53:31.869Z,45.60
2018-07-20T21:56:00.128Z,45.72
2018-07-20T21:58:28.344Z,46.18
2018-07-20T22:00:56.582Z,46.50
2018-07-20T22:03:24.869Z,46.78
2018-07-20T22:05:53.100Z,47.76
2018-07-20T22:08:21.343Z,47.01
2018-07-20T22:10:49.569Z,47.50
2018-07-20T22:13:17.789Z,47.04
2018-07-20T22:15:46.004Z,47.50
2018-07-20T22:18:14.217Z,47.71
2018-07-20T22:20:42.513Z,47.77
2018-07-20T22:23:10.788Z,47.91
2018-07-20T22:25:39.007Z,48.49
2018-07-20T22:28:07.669Z,48.94
2018-07-20T22:30:35.889Z,48.75
2018-07-20T22:33:04.117Z,47.96
2018-07-20T22:35:32.360Z,48.03
2018-07-20T22:38:00.604Z,48.53
2018-07-20T22:40:28.825Z,48.46
2018-07-20T22:42:57.045Z,48.54
2018-07-20T22:45:25.296Z,48.14
2018-07-20T22:47:53.507Z,48.00
2018-07-20T22:50:21.745Z,48.52
2018-07-20T22:52:49.978Z,48.41
2018-07-20T22:55:18.213Z,48.36
2018-07-20T22:57:46.472Z,48.36
2018-07-20T23:00:14.733Z,50.83
2018-07-20T23:02:43.008Z,53.96
2018-07-20T23:05:11.221Z,55.25
2018-07-20T23:07:39.432Z,55.99
2018-07-20T23:10:07.688Z,55.69
2018-07-20T23:12:35.900Z,56.94
2018-07-20T23:15:04.688Z,57.69
2018-07-20T23:17:32.925Z,57.79
2018-07-20T23:20:01.133Z,59.65
2018-07-20T23:22:29.416Z,59.48
2018-07-20T23:24:57.936Z,60.15
2018-07-20T23:27:26.181Z,60.31
2018-07-20T23:29:54.384Z,59.26
2018-07-20T23:32:22.640Z,59.82
2018-07-20T23:34:50.865Z,59.33
2018-07-20T23:37:19.084Z,59.74
2018-07-20T23:39:47.381Z,59.23
2018-07-20T23:42:15.616Z,59.79
2018-07-20T23:44:43.845Z,58.55
2018-07-20T23:47:12.109Z,58.85
2018-07-20T23:49:40.341Z,57.75
2018-07-20T23:52:08.549Z,57.58
2018-07-20T23:54:36.797Z,56.86
2018-07-20T23:57:05.021Z,57.02
2018-07-20T23:59:33.283Z,55.42
